createdAt,value
2022-12-01T00:01:25.596Z,53.75
2022-12-01T00:03:52.714Z,50.85
2022-12-01T00:06:22.213Z,57.83
2022-12-01T00:09:09.713Z,58.85
2022-12-01T00:11:38.024Z,58.88
2022-12-01T00:14:05.822Z,53.42
2022-12-01T00:16:33.640Z,57.20
2022-12-01T00:19:00.388Z,55.15
2022-12-01T00:21:27.539Z,61.15
2022-12-01T00:23:56.249Z,68.63
2022-12-01T00:26:23.679Z,77.43
2022-12-01T00:28:57.995Z,55.42
2022-12-01T00:31:25.976Z,59.95
2022-12-01T00:33:52.929Z,60.28
2022-12-01T00:36:20.189Z,67.20
2022-12-01T00:38:50.067Z,62.72
2022-12-01T00:41:18.135Z,71.32
2022-12-01T00:43:44.865Z,63.42
2022-12-01T00:46:14.917Z,74.27
2022-12-01T00:48:41.775Z,78.25
2022-12-01T00:51:08.702Z,61.57
2022-12-01T00:53:36.240Z,61.75
2022-12-01T00:56:05.562Z,54.80
2022-12-01T00:58:33.818Z,63.08
2022-12-01T01:01:02.853Z,58.60
2022-12-01T01:03:30.725Z,74.50
2022-12-01T01:06:06.598Z,72.03
2022-12-01T01:08:33.389Z,63.47
2022-12-01T01:11:01.492Z,65.07
2022-12-01T01:13:29.059Z,58.70
2022-12-01T01:16:07.752Z,63.65
2022-12-01T01:18:34.762Z,61.88
2022-12-01T01:21:06.173Z,59.65
2022-12-01T01:23:33.613Z,55.55
2022-12-01T01:26:23.148Z,59.75
2022-12-01T01:28:50.805Z,65.72
2022-12-01T01:33:50.888Z,55.97
2022-12-01T01:36:21.895Z,53.42
2022-12-01T01:38:53.282Z,68.03
2022-12-01T01:41:21.479Z,69.40
2022-12-01T01:44:02.040Z,60.75
2022-12-01T01:46:35.334Z,60.25
2022-12-01T01:49:15.419Z,56.00
2022-12-01T01:51:46.983Z,64.68
2022-12-01T01:54:26.615Z,62.63
2022-12-01T01:56:56.804Z,65.28
2022-12-01T01:59:29.221Z,63.08
2022-12-01T02:02:06.894Z,72.35
2022-12-01T02:04:38.065Z,73.22
2022-12-01T02:07:07.978Z,62.95
2022-12-01T02:09:37.933Z,65.20
2022-12-01T02:12:17.058Z,63.35
2022-12-01T02:15:05.819Z,61.78
2022-12-01T02:17:46.591Z,67.22
2022-12-01T02:20:50.890Z,58.00
2022-12-01T02:23:55.071Z,63.90
2022-12-01T02:26:46.501Z,58.20
2022-12-01T02:29:34.870Z,55.72
2022-12-01T02:32:15.655Z,49.45
2022-12-01T02:34:58.535Z,56.72
2022-12-01T02:37:32.723Z,51.03
2022-12-01T02:40:24.253Z,58.35
2022-12-01T02:42:54.581Z,48.28
2022-12-01T02:45:38.772Z,49.25
2022-12-01T02:48:12.390Z,61.10
2022-12-01T02:50:42.554Z,52.25
2022-12-01T02:53:13.242Z,51.85
2022-12-01T02:55:54.326Z,48.25
2022-12-01T02:58:22.064Z,50.35
2022-12-01T03:03:59.428Z,47.50
2022-12-01T03:07:02.684Z,52.17
2022-12-01T03:09:52.714Z,50.70
2022-12-01T03:12:37.313Z,51.60
2022-12-01T03:15:10.672Z,54.67
2022-12-01T03:17:45.109Z,51.28
2022-12-01T03:20:35.345Z,47.00
2022-12-01T03:23:12.523Z,48.15
2022-12-01T03:25:43.353Z,52.60
2022-12-01T03:28:21.323Z,49.90
2022-12-01T03:33:27.786Z,47.90
2022-12-01T03:36:21.713Z,50.05
2022-12-01T03:38:56.659Z,50.55
2022-12-01T03:41:29.767Z,48.45
2022-12-01T03:44:07.176Z,47.00
2022-12-01T03:46:46.989Z,49.70
2022-12-01T03:49:17.959Z,44.97
2022-12-01T03:51:58.783Z,50.13
2022-12-01T03:54:31.809Z,48.53
2022-12-01T03:57:04.400Z,51.95
2022-12-01T03:59:35.939Z,49.15
2022-12-01T04:02:03.647Z,47.88
2022-12-01T04:09:28.897Z,48.55
2022-12-01T04:12:14.226Z,47.78
2022-12-01T04:14:41.106Z,45.08
2022-12-01T04:17:08.371Z,50.30
2022-12-01T04:19:35.067Z,44.92
2022-12-01T04:22:02.620Z,45.90
2022-12-01T04:24:30.349Z,51.40
2022-12-01T04:29:23.784Z,45.85
2022-12-01T04:31:50.649Z,47.10
2022-12-01T04:34:17.584Z,46.63
2022-12-01T04:36:44.307Z,54.83
2022-12-01T04:39:11.254Z,48.10
2022-12-01T04:41:37.982Z,50.30
2022-12-01T04:44:11.210Z,54.00
2022-12-01T04:46:38.223Z,47.92
2022-12-01T04:49:06.032Z,50.92
2022-12-01T04:51:38.444Z,50.75
2022-12-01T04:54:16.008Z,49.60
2022-12-01T04:56:42.855Z,104.50
2022-12-01T04:59:10.142Z,57.50
2022-12-01T05:01:37.067Z,50.78
2022-12-01T05:04:04.333Z,51.75
2022-12-01T05:06:31.201Z,47.58
2022-12-01T05:09:00.365Z,53.93
2022-12-01T05:11:32.757Z,60.67
2022-12-01T05:14:00.034Z,46.75
2022-12-01T05:16:32.479Z,53.75
2022-12-01T05:19:24.954Z,50.15
2022-12-01T05:21:52.373Z,49.80
2022-12-01T05:24:20.696Z,46.75
2022-12-01T05:26:47.592Z,49.17
2022-12-01T05:29:14.551Z,56.53
2022-12-01T05:31:44.722Z,55.60
2022-12-01T05:34:12.986Z,50.80
2022-12-01T05:36:39.772Z,51.10
2022-12-01T05:39:09.237Z,45.00
2022-12-01T05:41:37.453Z,48.65
2022-12-01T05:44:05.742Z,48.40
2022-12-01T05:46:33.668Z,49.17
2022-12-01T05:49:00.548Z,46.85
2022-12-01T05:51:27.549Z,46.15
2022-12-01T05:53:54.256Z,43.88
2022-12-01T05:56:21.731Z,53.53
2022-12-01T05:58:48.567Z,49.60
2022-12-01T06:01:15.710Z,51.10
2022-12-01T06:03:42.749Z,49.55
2022-12-01T06:06:09.453Z,51.50
2022-12-01T06:08:38.285Z,52.33
2022-12-01T06:11:07.341Z,47.38
2022-12-01T06:13:35.049Z,54.10
2022-12-01T06:18:32.530Z,55.53
2022-12-01T06:21:00.966Z,61.22
2022-12-01T06:23:30.393Z,51.83
2022-12-01T06:25:57.941Z,63.40
2022-12-01T06:28:24.715Z,51.67
2022-12-01T06:30:51.512Z,63.80
2022-12-01T06:33:18.204Z,54.37
2022-12-01T06:35:44.979Z,59.05
2022-12-01T06:38:14.195Z,52.40
2022-12-01T06:40:42.828Z,56.65
2022-12-01T06:43:11.148Z,59.55
2022-12-01T06:45:37.895Z,55.58
2022-12-01T06:48:12.673Z,56.77
2022-12-01T06:50:39.538Z,48.15
2022-12-01T06:53:06.344Z,54.88
2022-12-01T06:55:34.036Z,44.50
2022-12-01T06:58:00.973Z,47.97
2022-12-01T07:00:29.296Z,52.83
2022-12-01T07:02:59.370Z,53.80
2022-12-01T07:05:27.217Z,45.53
2022-12-01T07:07:59.283Z,42.38
2022-12-01T07:10:28.874Z,42.58
2022-12-01T07:13:00.108Z,38.25
2022-12-01T07:15:28.727Z,42.42
2022-12-01T07:17:57.275Z,50.42
2022-12-01T07:20:28.165Z,48.33
2022-12-01T07:23:02.375Z,47.65
2022-12-01T07:25:29.066Z,50.83
2022-12-01T07:28:01.568Z,37.92
2022-12-01T07:30:31.902Z,49.35
2022-12-01T07:32:59.982Z,46.80
2022-12-01T07:35:27.696Z,42.42
2022-12-01T07:40:22.919Z,40.70
2022-12-01T07:42:56.833Z,41.33
2022-12-01T07:45:23.781Z,39.28
2022-12-01T07:47:53.691Z,43.88
2022-12-01T07:50:28.439Z,39.35
2022-12-01T07:52:55.156Z,36.88
2022-12-01T07:55:23.218Z,43.85
2022-12-01T07:57:50.968Z,45.65
2022-12-01T08:03:07.859Z,39.72
2022-12-01T08:05:35.633Z,46.88
2022-12-01T08:10:31.181Z,40.05
2022-12-01T08:13:01.802Z,37.65
2022-12-01T08:15:28.757Z,45.30
2022-12-01T08:17:55.534Z,42.03
2022-12-01T08:20:24.100Z,43.87
2022-12-01T08:23:01.354Z,43.53
2022-12-01T08:25:31.872Z,41.03
2022-12-01T08:28:00.428Z,38.88
2022-12-01T08:30:28.204Z,43.45
2022-12-01T08:32:57.276Z,43.03
2022-12-01T08:35:24.745Z,44.08
2022-12-01T08:37:55.382Z,41.63
2022-12-01T08:40:23.980Z,40.80
2022-12-01T08:42:52.695Z,42.33
2022-12-01T08:45:20.756Z,40.03
2022-12-01T08:47:47.560Z,42.17
2022-12-01T08:50:14.396Z,42.30
2022-12-01T08:52:41.111Z,49.00
2022-12-01T08:55:08.790Z,45.95
2022-12-01T09:00:03.180Z,46.65
2022-12-01T09:04:57.818Z,46.13
2022-12-01T09:07:26.672Z,46.67
2022-12-01T09:09:53.891Z,41.83
2022-12-01T09:12:20.662Z,48.07
2022-12-01T09:14:49.656Z,44.03
2022-12-01T09:17:17.748Z,51.80
2022-12-01T09:19:44.797Z,52.03
2022-12-01T09:22:12.145Z,49.33
2022-12-01T09:24:38.948Z,50.38
2022-12-01T09:27:07.078Z,44.80
2022-12-01T09:29:33.786Z,46.38
2022-12-01T09:32:00.939Z,46.53
2022-12-01T09:34:38.021Z,45.42
2022-12-01T09:37:04.947Z,43.15
2022-12-01T09:39:31.743Z,44.08
2022-12-01T09:42:13.862Z,41.07
2022-12-01T09:44:55.334Z,44.13
2022-12-01T09:47:25.638Z,43.50
2022-12-01T09:50:07.711Z,43.53
2022-12-01T09:52:43.499Z,48.75
2022-12-01T09:55:13.629Z,44.97
2022-12-01T09:57:42.191Z,41.03
2022-12-01T10:00:19.918Z,40.85
2022-12-01T10:02:59.682Z,37.28
2022-12-01T10:05:51.326Z,39.45
2022-12-01T10:08:29.597Z,38.72
2022-12-01T10:11:05.109Z,32.92
2022-12-01T10:13:33.114Z,42.55
2022-12-01T10:16:15.029Z,35.60
2022-12-01T10:18:42.736Z,35.33
2022-12-01T10:24:16.444Z,36.80
2022-12-01T10:27:25.209Z,40.25
2022-12-01T10:30:01.890Z,33.35
2022-12-01T10:32:54.409Z,32.90
2022-12-01T10:35:29.177Z,32.08
2022-12-01T10:38:00.092Z,32.55
2022-12-01T10:40:28.544Z,32.05
2022-12-01T10:42:57.108Z,36.38
2022-12-01T10:45:30.636Z,35.65
2022-12-01T10:48:16.782Z,39.72
2022-12-01T10:50:49.962Z,31.88
2022-12-01T10:53:22.701Z,34.70
2022-12-01T10:56:00.885Z,35.92
2022-12-01T10:58:27.966Z,34.63
2022-12-01T11:01:00.026Z,33.83
2022-12-01T11:03:32.653Z,33.50
2022-12-01T11:06:02.420Z,36.25
2022-12-01T11:08:50.464Z,35.70
2022-12-01T11:11:31.203Z,29.60
2022-12-01T11:14:01.241Z,36.50
2022-12-01T11:16:33.987Z,32.78
2022-12-01T11:19:28.473Z,42.70
2022-12-01T11:22:02.034Z,34.63
2022-12-01T11:24:55.681Z,32.05
2022-12-01T11:27:24.565Z,35.67
2022-12-01T11:29:57.083Z,39.88
2022-12-01T11:32:29.446Z,35.45
2022-12-01T11:35:13.450Z,37.97
2022-12-01T11:38:21.094Z,31.20
2022-12-01T11:40:47.531Z,32.87
2022-12-01T11:43:36.034Z,36.67
2022-12-01T11:46:06.692Z,36.38
2022-12-01T11:48:39.516Z,36.17
2022-12-01T11:51:37.560Z,35.38
2022-12-01T11:54:21.173Z,34.92
2022-12-01T11:56:56.105Z,37.47
2022-12-01T11:59:37.979Z,34.25
2022-12-01T12:02:21.632Z,38.88
2022-12-01T12:05:28.219Z,36.60
2022-12-01T12:08:17.160Z,31.83
2022-12-01T12:13:59.190Z,43.30
2022-12-01T12:17:02.834Z,36.65
2022-12-01T12:23:18.523Z,34.53
2022-12-01T12:26:04.201Z,34.43
2022-12-01T12:29:12.336Z,32.97
2022-12-01T12:32:03.300Z,36.15
2022-12-01T12:34:30.138Z,35.25
2022-12-01T12:37:11.447Z,38.60
2022-12-01T12:40:17.809Z,32.38
2022-12-01T12:43:07.647Z,31.98
2022-12-01T12:46:01.924Z,34.50
2022-12-01T12:48:31.699Z,43.22
2022-12-01T12:51:14.297Z,37.38
2022-12-01T12:54:12.924Z,34.47
2022-12-01T12:56:50.456Z,34.10
2022-12-01T12:59:24.931Z,36.35
2022-12-01T13:02:11.826Z,38.95
2022-12-01T13:05:17.418Z,36.85
2022-12-01T13:07:59.516Z,43.97
2022-12-01T13:11:05.716Z,48.33
2022-12-01T13:13:41.195Z,42.50
2022-12-01T13:16:15.631Z,46.05
2022-12-01T13:19:18.421Z,39.25
2022-12-01T13:21:49.279Z,37.42
2022-12-01T13:24:28.237Z,37.58
2022-12-01T13:27:00.837Z,42.75
2022-12-01T13:29:40.873Z,37.47
2022-12-01T13:32:40.593Z,42.65
2022-12-01T13:35:31.798Z,41.25
2022-12-01T13:38:33.960Z,39.10
2022-12-01T13:41:19.192Z,41.65
2022-12-01T13:43:59.532Z,45.08
2022-12-01T13:46:50.598Z,42.67
2022-12-01T13:49:42.664Z,42.20
2022-12-01T13:52:33.104Z,41.78
2022-12-01T13:55:12.323Z,41.08
2022-12-01T13:57:46.404Z,41.42
2022-12-01T14:00:31.922Z,42.28
2022-12-01T14:03:19.471Z,42.60
2022-12-01T14:05:57.142Z,47.00
2022-12-01T14:08:45.502Z,46.65
2022-12-01T14:11:31.119Z,46.28
2022-12-01T14:14:08.972Z,46.17
2022-12-01T14:16:49.184Z,47.88
2022-12-01T14:19:54.140Z,49.90
2022-12-01T14:22:43.908Z,48.35
2022-12-01T14:25:27.094Z,47.25
2022-12-01T14:27:57.657Z,45.25
2022-12-01T14:30:40.765Z,46.60
2022-12-01T14:33:48.087Z,54.13
2022-12-01T14:36:23.857Z,51.70
2022-12-01T14:39:03.759Z,54.22
2022-12-01T14:41:48.749Z,50.80
2022-12-01T14:44:28.405Z,56.67
2022-12-01T14:47:00.398Z,61.58
2022-12-01T14:49:37.932Z,55.55
2022-12-01T14:52:13.292Z,54.08
2022-12-01T14:54:47.828Z,48.80
2022-12-01T14:57:19.987Z,68.50
2022-12-01T15:00:15.088Z,54.17
2022-12-01T15:02:47.672Z,62.92
2022-12-01T15:05:18.470Z,61.83
2022-12-01T15:07:54.257Z,56.50
2022-12-01T15:10:34.903Z,57.67
2022-12-01T15:13:20.187Z,57.90
2022-12-01T15:15:57.977Z,96.45
2022-12-01T15:18:27.722Z,57.78
2022-12-01T15:21:02.746Z,126.40
2022-12-01T15:23:29.568Z,86.13
2022-12-01T15:25:56.907Z,65.57
2022-12-01T15:28:34.893Z,63.13
2022-12-01T15:31:11.405Z,83.13
2022-12-01T15:33:51.145Z,83.45
2022-12-01T15:36:20.098Z,66.30
2022-12-01T15:38:49.280Z,56.60
2022-12-01T15:41:29.062Z,59.72
2022-12-01T15:43:59.054Z,62.83
2022-12-01T15:46:34.259Z,57.47
2022-12-01T15:49:19.410Z,79.20
2022-12-01T15:51:49.229Z,219.65
2022-12-01T15:54:24.116Z,86.85
2022-12-01T15:56:54.982Z,68.00
2022-12-01T15:59:26.555Z,64.15
2022-12-01T16:01:53.679Z,63.78
2022-12-01T16:04:25.045Z,63.85
2022-12-01T16:07:08.739Z,64.72
2022-12-01T16:09:39.689Z,64.07
2022-12-01T16:12:16.436Z,69.55
2022-12-01T16:15:10.081Z,108.57
2022-12-01T16:17:50.276Z,63.60
2022-12-01T16:20:26.531Z,63.95
2022-12-01T16:23:00.137Z,63.10
2022-12-01T16:25:36.895Z,69.93
2022-12-01T16:28:06.730Z,64.13
2022-12-01T16:30:39.579Z,70.93
2022-12-01T16:33:17.103Z,64.28
2022-12-01T16:35:44.303Z,66.83
2022-12-01T16:38:23.370Z,73.00
2022-12-01T16:41:01.289Z,71.35
2022-12-01T16:43:29.740Z,71.20
2022-12-01T16:46:03.221Z,66.50
2022-12-01T16:48:31.317Z,73.60
2022-12-01T16:51:03.009Z,67.82
2022-12-01T16:53:29.837Z,64.10
2022-12-01T16:55:59.157Z,65.67
2022-12-01T16:58:27.779Z,72.50
2022-12-01T17:00:54.825Z,67.43
2022-12-01T17:03:28.017Z,78.03
2022-12-01T17:05:55.352Z,60.60
2022-12-01T17:08:24.520Z,71.53
2022-12-01T17:10:52.186Z,64.60
2022-12-01T17:15:48.591Z,68.57
2022-12-01T17:18:17.588Z,66.28
2022-12-01T17:20:46.138Z,62.80
2022-12-01T17:23:12.826Z,67.72
2022-12-01T17:25:43.571Z,67.60
2022-12-01T17:28:12.354Z,67.82
2022-12-01T17:30:47.186Z,63.85
2022-12-01T17:33:18.335Z,63.60
2022-12-01T17:35:45.075Z,65.90
2022-12-01T17:38:11.744Z,71.77
2022-12-01T17:40:38.487Z,58.28
2022-12-01T17:43:08.455Z,65.40
2022-12-01T17:45:41.886Z,70.13
2022-12-01T17:48:09.112Z,77.95
2022-12-01T17:50:35.807Z,67.70
2022-12-01T17:53:02.568Z,67.30
2022-12-01T17:55:31.880Z,69.30
2022-12-01T17:57:58.806Z,72.13
2022-12-01T18:00:25.690Z,67.22
2022-12-01T18:02:53.215Z,77.43
2022-12-01T18:05:20.250Z,73.80
2022-12-01T18:07:53.130Z,70.68
2022-12-01T18:10:19.868Z,70.82
2022-12-01T18:12:47.751Z,77.75
2022-12-01T18:15:14.673Z,60.72
2022-12-01T18:17:41.383Z,69.60
2022-12-01T18:20:10.639Z,62.47
2022-12-01T18:22:37.381Z,68.15
2022-12-01T18:25:04.620Z,62.80
2022-12-01T18:27:31.456Z,70.57
2022-12-01T18:29:58.261Z,68.93
2022-12-01T18:32:25.045Z,59.30
2022-12-01T18:34:53.136Z,73.93
2022-12-01T18:37:23.035Z,63.80
2022-12-01T18:39:54.494Z,68.60
2022-12-01T18:42:22.390Z,64.55
2022-12-01T18:44:50.622Z,60.55
2022-12-01T18:47:17.868Z,66.25
2022-12-01T18:49:46.943Z,69.13
2022-12-01T18:52:14.831Z,61.55
2022-12-01T18:54:42.867Z,67.85
2022-12-01T18:57:11.859Z,58.95
2022-12-01T18:59:38.699Z,67.63
2022-12-01T19:02:05.497Z,74.93
2022-12-01T19:04:32.262Z,69.53
2022-12-01T19:06:59.053Z,64.97
2022-12-01T19:09:27.019Z,65.37
2022-12-01T19:11:59.849Z,62.35
2022-12-01T19:14:28.282Z,72.95
2022-12-01T19:16:56.648Z,68.25
2022-12-01T19:19:23.765Z,68.25
2022-12-01T19:21:58.680Z,64.78
2022-12-01T19:24:25.417Z,66.60
2022-12-01T19:26:52.279Z,70.57
2022-12-01T19:29:21.037Z,63.27
2022-12-01T19:31:47.810Z,69.07
2022-12-01T19:34:14.685Z,71.60
2022-12-01T19:36:42.680Z,70.27
2022-12-01T19:39:09.568Z,73.75
2022-12-01T19:41:36.288Z,71.47
2022-12-01T19:44:03.129Z,70.20
2022-12-01T19:46:29.977Z,71.10
2022-12-01T19:49:00.645Z,64.78
2022-12-01T19:51:37.183Z,62.45
2022-12-01T19:54:06.419Z,61.08
2022-12-01T19:56:33.542Z,64.35
2022-12-01T19:59:01.755Z,63.55
2022-12-01T20:01:29.658Z,66.88
2022-12-01T20:03:57.552Z,65.70
2022-12-01T20:06:26.939Z,68.75
2022-12-01T20:09:02.673Z,66.95
2022-12-01T20:11:29.942Z,70.97
2022-12-01T20:13:59.652Z,61.97
2022-12-01T20:16:32.743Z,66.10
2022-12-01T20:19:04.108Z,58.83
2022-12-01T20:21:36.207Z,66.40
2022-12-01T20:24:08.398Z,72.13
2022-12-01T20:26:38.803Z,63.25
2022-12-01T20:29:26.851Z,72.35
2022-12-01T20:31:56.468Z,62.23
2022-12-01T20:34:27.379Z,73.45
2022-12-01T20:36:54.828Z,70.35
2022-12-01T20:39:21.749Z,67.90
2022-12-01T20:41:48.701Z,71.63
2022-12-01T20:44:17.886Z,62.08
2022-12-01T20:46:45.900Z,68.75
2022-12-01T20:49:14.018Z,67.47
2022-12-01T20:51:41.100Z,65.63
2022-12-01T20:54:29.242Z,57.58
2022-12-01T20:57:02.318Z,70.85
2022-12-01T20:59:31.944Z,65.38
2022-12-01T21:01:58.843Z,66.80
2022-12-01T21:04:26.902Z,63.83
2022-12-01T21:06:58.120Z,68.70
2022-12-01T21:09:25.708Z,59.17
2022-12-01T21:12:11.413Z,62.90
2022-12-01T21:14:46.852Z,62.15
2022-12-01T21:17:16.916Z,59.63
2022-12-01T21:20:05.598Z,68.57
2022-12-01T21:22:35.508Z,62.92
2022-12-01T21:25:17.847Z,59.63
2022-12-01T21:27:47.866Z,62.03
2022-12-01T21:30:18.265Z,73.50
2022-12-01T21:32:46.548Z,59.50
2022-12-01T21:35:25.027Z,62.22
2022-12-01T21:38:06.982Z,62.72
2022-12-01T21:40:35.692Z,60.28
2022-12-01T21:43:20.411Z,66.20
2022-12-01T21:46:00.537Z,62.53
2022-12-01T21:48:35.042Z,59.03
2022-12-01T21:51:23.470Z,61.70
2022-12-01T21:53:55.833Z,59.47
2022-12-01T21:56:28.057Z,63.17
2022-12-01T21:59:06.712Z,62.85
2022-12-01T22:01:35.001Z,51.60
2022-12-01T22:04:13.454Z,58.42
2022-12-01T22:06:46.616Z,56.55
2022-12-01T22:09:18.850Z,51.38
2022-12-01T22:11:49.377Z,48.53
2022-12-01T22:14:22.988Z,45.80
2022-12-01T22:17:10.323Z,51.92
2022-12-01T22:19:46.252Z,53.00
2022-12-01T22:22:13.205Z,51.25
2022-12-01T22:24:49.812Z,55.58
2022-12-01T22:27:58.229Z,58.90
2022-12-01T22:30:25.046Z,64.55
2022-12-01T22:33:00.285Z,55.10
2022-12-01T22:35:50.930Z,55.88
2022-12-01T22:38:36.652Z,54.25
2022-12-01T22:41:13.258Z,48.58
2022-12-01T22:43:56.777Z,56.83
2022-12-01T22:46:32.039Z,56.83
2022-12-01T22:49:13.622Z,59.55
2022-12-01T22:51:48.596Z,47.92
2022-12-01T22:54:15.401Z,52.50
2022-12-01T22:56:47.248Z,52.63
2022-12-01T22:59:29.505Z,49.53
2022-12-01T23:01:59.279Z,57.95
2022-12-01T23:04:40.295Z,58.55
2022-12-01T23:07:27.874Z,53.58
2022-12-01T23:10:02.254Z,49.13
2022-12-01T23:12:36.709Z,52.70
2022-12-01T23:15:37.876Z,56.17
2022-12-01T23:18:30.685Z,50.35
2022-12-01T23:20:59.517Z,55.17
2022-12-01T23:23:31.795Z,54.47
2022-12-01T23:26:05.630Z,55.85
2022-12-01T23:28:34.820Z,61.30
2022-12-01T23:31:03.724Z,51.22
2022-12-01T23:33:32.566Z,56.17
2022-12-01T23:36:05.483Z,56.65
2022-12-01T23:38:40.140Z,57.30
2022-12-01T23:41:34.660Z,54.20
2022-12-01T23:44:14.836Z,55.75
2022-12-01T23:46:41.801Z,53.70
2022-12-01T23:49:16.534Z,53.17
2022-12-01T23:51:54.619Z,51.53
2022-12-01T23:54:25.273Z,55.17
2022-12-01T23:56:54.559Z,55.72
2022-12-01T23:59:23.937Z,48.60
